Time;durP1;ratioP1;P1;durP2;ratioP2;P2;SDS_P1;SDS_P2;PMS_P1;PMS_P2;Temp;Humidity;BMP_temperature;BMP_pressure;BME280_temperature;BME280_humidity;BME280_pressure;Samples;Min_cycle;Max_cycle;Signal;HPM_P1;HPM_P2
2022/11/30 00:01:20;;;;;;;60.20;21.48;;;;;;;8.02;99.61;100290.84;4947166;28;20052;-91
2022/11/30 00:03:47;;;;;;;58.00;21.27;;;;;;;8.00;99.78;100287.44;4942660;28;20047;-89
2022/11/30 00:06:15;;;;;;;61.22;21.80;;;;;;;8.03;99.42;100289.03;4936828;28;20043;-91
2022/11/30 00:08:42;;;;;;;56.40;21.00;;;;;;;8.05;99.17;100289.78;4945101;28;20069;-92
2022/11/30 00:11:11;;;;;;;53.15;20.67;;;;;;;8.03;99.02;100283.75;4932617;28;20043;-92
2022/11/30 00:13:38;;;;;;;53.22;20.90;;;;;;;8.04;98.73;100282.81;4942614;28;20050;-91
2022/11/30 00:16:05;;;;;;;49.90;20.40;;;;;;;8.05;98.40;100285.31;4959400;28;20054;-90
2022/11/30 00:18:32;;;;;;;48.75;19.38;;;;;;;8.03;98.30;100284.56;4943790;28;20048;-90
2022/11/30 00:21:00;;;;;;;56.22;20.77;;;;;;;8.02;98.72;100290.00;4955894;28;20074;-92
2022/11/30 00:23:35;;;;;;;57.78;20.35;;;;;;;8.00;98.38;100291.91;4957687;28;20042;-91
2022/11/30 00:26:03;;;;;;;50.80;19.63;;;;;;;8.01;98.79;100299.72;4947825;28;20054;-90
2022/11/30 00:28:32;;;;;;;54.78;20.98;;;;;;;8.01;98.66;100288.28;4924353;28;20046;-92
2022/11/30 00:31:00;;;;;;;55.30;21.38;;;;;;;8.00;98.45;100287.44;4928387;28;20072;-91
2022/11/30 00:33:28;;;;;;;54.63;21.27;;;;;;;8.00;98.43;100279.50;4950221;28;20049;-91
2022/11/30 00:35:58;;;;;;;55.15;21.58;;;;;;;7.97;98.56;100281.53;4940535;28;20046;-91
2022/11/30 00:38:27;;;;;;;52.92;21.30;;;;;;;7.99;98.30;100275.19;4971879;28;20053;-91
2022/11/30 00:40:55;;;;;;;56.75;22.73;;;;;;;8.00;98.29;100282.16;4951925;28;20105;-91
2022/11/30 00:43:22;;;;;;;54.08;21.45;;;;;;;8.00;98.21;100286.59;4967675;28;20050;-90
2022/11/30 00:45:49;;;;;;;51.65;19.10;;;;;;;8.00;98.36;100294.53;4936798;28;20129;-92
2022/11/30 00:48:16;;;;;;;54.10;20.60;;;;;;;8.00;98.25;100297.19;4958266;28;20049;-91
2022/11/30 00:50:43;;;;;;;57.88;21.60;;;;;;;7.99;98.47;100299.00;4956928;28;20062;-91
2022/11/30 00:53:10;;;;;;;56.72;20.10;;;;;;;7.97;99.01;100297.41;4937177;28;20045;-91
2022/11/30 00:55:36;;;;;;;54.78;20.10;;;;;;;7.99;99.11;100300.78;4969484;28;20042;-91
2022/11/30 00:58:05;;;;;;;46.70;19.38;;;;;;;7.99;99.28;100293.69;4939094;28;20474;-91
2022/11/30 01:00:32;;;;;;;54.00;20.33;;;;;;;7.96;99.34;100298.34;4942119;28;20042;-92
2022/11/30 01:02:59;;;;;;;54.55;21.27;;;;;;;7.99;99.14;100292.88;4953026;28;20038;-91
2022/11/30 01:05:26;;;;;;;50.78;20.98;;;;;;;7.98;99.15;100288.50;4960903;28;20534;-90
2022/11/30 01:07:52;;;;;;;54.80;20.88;;;;;;;7.98;99.21;100284.06;4959646;28;20504;-91
2022/11/30 01:10:19;;;;;;;50.08;19.88;;;;;;;8.00;99.27;100294.53;4999729;28;20062;-91
2022/11/30 01:12:46;;;;;;;52.38;19.63;;;;;;;7.96;99.90;100296.56;4945662;28;20046;-90
2022/11/30 01:15:13;;;;;;;56.45;20.83;;;;;;;7.97;99.83;100303.53;4953696;28;20050;-90
2022/11/30 01:17:40;;;;;;;49.55;19.25;;;;;;;7.98;99.93;100302.56;4969016;28;20046;-91
2022/11/30 01:20:07;;;;;;;55.03;19.30;;;;;;;7.96;99.99;100307.16;4963945;28;20074;-91
2022/11/30 01:22:34;;;;;;;50.95;19.90;;;;;;;7.96;100.00;100307.16;4988026;28;20034;-91
2022/11/30 01:25:01;;;;;;;48.38;19.17;;;;;;;7.96;99.86;100301.84;4960580;28;20054;-91
2022/11/30 01:27:27;;;;;;;46.45;19.50;;;;;;;7.98;100.00;100304.38;4948273;28;20051;-90
2022/11/30 01:29:54;;;;;;;44.75;17.88;;;;;;;7.97;99.85;100308.81;4973034;28;20046;-90
2022/11/30 01:32:21;;;;;;;49.75;18.20;;;;;;;7.97;99.66;100303.53;4990602;28;20081;-90
2022/11/30 01:34:47;;;;;;;44.25;18.83;;;;;;;7.98;99.68;100305.22;4985870;28;20445;-91
2022/11/30 01:37:14;;;;;;;46.22;17.30;;;;;;;7.97;99.67;100302.69;4989009;28;20061;-90
2022/11/30 01:39:41;;;;;;;45.33;19.08;;;;;;;7.99;99.42;100306.09;4981821;28;20058;-89
2022/11/30 01:42:16;;;;;;;44.72;17.75;;;;;;;7.93;99.13;100304.69;4981099;28;20736;-91
2022/11/30 01:44:52;;;;;;;39.60;16.90;;;;;;;7.97;98.79;100307.97;4929870;28;20053;-90
2022/11/30 01:47:23;;;;;;;41.40;17.00;;;;;;;7.96;98.68;100306.28;4984692;28;20437;-90
2022/11/30 01:49:57;;;;;;;44.08;18.45;;;;;;;7.94;98.53;100306.41;4970783;28;20042;-91
2022/11/30 01:52:27;;;;;;;41.78;17.40;;;;;;;7.92;98.14;100304.81;4962796;28;20395;-91
2022/11/30 01:55:00;;;;;;;41.65;16.38;;;;;;;7.92;98.04;100310.94;4969400;28;20653;-90
2022/11/30 01:57:39;;;;;;;44.20;17.95;;;;;;;7.87;97.82;100312.22;4969332;28;20046;-91
2022/11/30 02:00:09;;;;;;;43.83;18.13;;;;;;;7.88;98.25;100311.25;4979524;28;20544;-90
2022/11/30 02:02:46;;;;;;;40.92;16.95;;;;;;;7.89;97.83;100312.97;4969049;28;20048;-90
2022/11/30 02:05:15;;;;;;;44.45;17.10;;;;;;;7.89;97.64;100311.16;4909032;28;20086;-90
2022/11/30 02:07:41;;;;;;;41.17;17.58;;;;;;;7.92;97.71;100323.31;4955812;28;20512;-89
2022/11/30 02:10:22;;;;;;;47.83;17.52;;;;;;;7.86;96.97;100323.72;4965306;28;20050;-90
2022/11/30 02:13:10;;;;;;;42.22;17.08;;;;;;;7.82;96.53;100323.13;4967700;28;20046;-90
2022/11/30 02:15:49;;;;;;;38.30;17.40;;;;;;;7.85;96.68;100324.69;4952055;28;20047;-90
2022/11/30 02:18:23;;;;;;;41.97;17.90;;;;;;;7.82;96.72;100323.94;4943998;28;20053;-89
2022/11/30 02:21:00;;;;;;;45.75;19.60;;;;;;;7.81;97.15;100319.63;4974612;28;20049;-89
2022/11/30 02:23:35;;;;;;;42.55;17.42;;;;;;;7.84;96.72;100321.22;4952595;28;22270;-90
2022/11/30 02:26:28;;;;;;;39.83;18.13;;;;;;;7.81;97.93;100326.69;4970470;28;20053;-91
2022/11/30 02:29:36;;;;;;;42.92;17.27;;;;;;;7.78;98.21;100321.63;4945901;28;20129;-91
2022/11/30 02:32:08;;;;;;;40.33;17.77;;;;;;;7.81;98.18;100314.34;4898330;28;20733;-89
2022/11/30 02:34:36;;;;;;;36.73;18.07;;;;;;;7.86;97.96;100319.31;4978185;28;20108;-90
2022/11/30 02:37:05;;;;;;;38.83;17.77;;;;;;;7.83;98.23;100320.34;4968339;28;20078;-90
2022/11/30 02:39:32;;;;;;;46.58;19.80;;;;;;;7.82;98.35;100320.47;4985502;28;20073;-90
2022/11/30 02:41:59;;;;;;;38.78;18.23;;;;;;;7.86;97.94;100327.25;4960532;28;20068;-90
2022/11/30 02:44:27;;;;;;;41.15;18.80;;;;;;;7.85;98.32;100324.69;4973934;28;20038;-91
2022/11/30 02:47:09;;;;;;;39.40;17.00;;;;;;;7.76;98.19;100323.50;4960429;28;20046;-90
2022/11/30 02:49:51;;;;;;;42.13;17.60;;;;;;;7.75;98.30;100332.41;4982419;28;20053;-90
2022/11/30 02:52:21;;;;;;;36.78;18.15;;;;;;;7.81;98.45;100326.69;4973823;28;20042;-91
2022/11/30 02:54:48;;;;;;;38.95;17.92;;;;;;;7.85;98.28;100335.28;4959563;28;20401;-90
2022/11/30 02:57:15;;;;;;;45.80;19.42;;;;;;;7.81;98.40;100326.69;4955756;28;20046;-89
2022/11/30 02:59:42;;;;;;;37.42;17.90;;;;;;;7.81;98.39;100324.91;4957399;28;20134;-91
2022/11/30 03:02:09;;;;;;;42.13;18.20;;;;;;;7.76;99.06;100323.50;4959796;28;20057;-90
2022/11/30 03:04:36;;;;;;;45.00;18.42;;;;;;;7.80;98.74;100333.78;4961074;28;20039;-90
2022/11/30 03:07:02;;;;;;;39.45;18.92;;;;;;;7.80;98.86;100335.59;4973541;28;20042;-91
2022/11/30 03:09:29;;;;;;;39.17;16.85;;;;;;;7.81;98.53;100337.25;4984603;28;20061;-90
2022/11/30 03:11:56;;;;;;;36.30;16.88;;;;;;;7.83;98.52;100338.84;4961406;28;20516;-91
2022/11/30 03:14:23;;;;;;;38.92;17.98;;;;;;;7.82;98.76;100331.88;4972440;28;20056;-91
2022/11/30 03:16:49;;;;;;;36.83;17.30;;;;;;;7.84;98.12;100337.06;4925666;28;20046;-91
2022/11/30 03:19:16;;;;;;;41.75;18.75;;;;;;;7.82;97.76;100331.88;4940345;28;20070;-90
2022/11/30 03:21:43;;;;;;;39.65;17.35;;;;;;;7.83;98.24;100338.84;4958799;28;20477;-91
2022/11/30 03:24:10;;;;;;;37.50;16.77;;;;;;;7.82;98.15;100339.81;4980271;28;20445;-91
2022/11/30 03:26:36;;;;;;;39.13;17.90;;;;;;;7.86;98.10;100342.25;4956610;28;20105;-90
2022/11/30 03:29:03;;;;;;;35.40;17.60;;;;;;;7.87;98.17;100338.66;4962507;28;20056;-90
2022/11/30 03:31:30;;;;;;;38.38;17.98;;;;;;;7.80;98.41;100338.22;4963948;28;20476;-90
2022/11/30 03:33:57;;;;;;;39.53;18.20;;;;;;;7.85;98.00;100337.91;4956953;28;20038;-90
2022/11/30 03:36:24;;;;;;;37.17;18.08;;;;;;;7.83;98.23;100336.22;4965097;28;20107;-90
2022/11/30 03:38:50;;;;;;;32.13;17.00;;;;;;;7.84;98.07;100329.16;4952125;28;20511;-91
2022/11/30 03:41:17;;;;;;;34.72;16.45;;;;;;;7.83;98.02;100330.06;4961557;28;20117;-91
2022/11/30 03:43:45;;;;;;;31.90;16.83;;;;;;;7.80;98.23;100327.66;4961366;28;20157;-91
2022/11/30 03:46:13;;;;;;;32.72;16.25;;;;;;;7.82;97.91;100341.63;4938399;28;20081;-90
2022/11/30 03:48:41;;;;;;;34.05;16.98;;;;;;;7.79;98.24;100333.91;4969829;28;20042;-91
2022/11/30 03:51:09;;;;;;;32.22;15.55;;;;;;;7.79;97.93;100350.59;4947645;28;20042;-90
2022/11/30 03:53:36;;;;;;;28.77;14.30;;;;;;;7.80;97.90;100347.00;4955355;28;20128;-90
2022/11/30 03:56:06;;;;;;;30.50;15.10;;;;;;;7.80;97.86;100354.09;4956942;28;20061;-90
2022/11/30 03:58:32;;;;;;;34.70;16.08;;;;;;;7.80;98.11;100351.44;4959483;28;20506;-91
2022/11/30 04:01:05;;;;;;;29.63;14.55;;;;;;;7.77;97.95;100356.94;4949687;28;20445;-91
2022/11/30 04:03:32;;;;;;;31.75;15.02;;;;;;;7.76;98.42;100352.59;4953816;28;20038;-90
2022/11/30 04:05:59;;;;;;;28.42;14.32;;;;;;;7.75;97.98;100348.28;4933513;28;20461;-90
2022/11/30 04:08:27;;;;;;;28.92;13.65;;;;;;;7.80;97.84;100354.94;4988164;28;20066;-90
2022/11/30 04:10:55;;;;;;;29.38;14.93;;;;;;;7.78;98.02;100351.53;4972138;28;20061;-90
2022/11/30 04:13:23;;;;;;;27.63;14.23;;;;;;;7.79;97.57;100345.31;4955933;28;20046;-91
2022/11/30 04:15:52;;;;;;;25.88;14.40;;;;;;;7.78;97.55;100348.06;4967912;28;20456;-90
2022/11/30 04:18:22;;;;;;;29.50;14.45;;;;;;;7.78;97.71;100353.34;4930119;28;20567;-90
2022/11/30 04:20:51;;;;;;;24.60;13.57;;;;;;;7.74;97.68;100351.88;4952458;28;20054;-91
2022/11/30 04:23:18;;;;;;;28.77;14.32;;;;;;;7.75;96.69;100346.47;4930412;28;20046;-91
2022/11/30 04:25:46;;;;;;;24.95;13.15;;;;;;;7.80;96.11;100348.81;4957709;28;20043;-90
2022/11/30 04:28:15;;;;;;;23.95;13.95;;;;;;;7.73;96.72;100353.66;4936815;28;20050;-90
2022/11/30 04:30:42;;;;;;;26.33;14.25;;;;;;;7.75;95.52;100345.63;4919829;28;20046;-90
2022/11/30 04:33:09;;;;;;;28.75;14.55;;;;;;;7.74;95.82;100350.06;4919424;28;20047;-91
2022/11/30 04:35:41;;;;;;;26.67;14.48;;;;;;;7.68;96.10;100347.84;4930576;28;20055;-90
2022/11/30 04:38:08;;;;;;;28.23;13.73;;;;;;;7.72;97.00;100356.41;4949037;28;20065;-91
2022/11/30 04:40:38;;;;;;;27.27;15.27;;;;;;;7.66;96.99;100355.03;4944151;28;20054;-90
2022/11/30 04:43:05;;;;;;;29.38;14.65;;;;;;;7.66;97.12;100351.53;4951306;28;20084;-90
2022/11/30 04:45:35;;;;;;;30.73;16.13;;;;;;;7.64;97.01;100350.81;4936236;28;20061;-91
2022/11/30 04:48:04;;;;;;;29.00;14.95;;;;;;;7.67;97.03;100358.53;4934472;28;20042;-90
2022/11/30 04:50:51;;;;;;;23.85;13.30;;;;;;;7.66;96.85;100351.53;4947456;28;20599;-89
2022/11/30 04:53:18;;;;;;;23.77;13.02;;;;;;;7.68;96.12;100353.13;4944731;28;20057;-90
2022/11/30 04:55:45;;;;;;;25.42;14.02;;;;;;;7.70;95.67;100353.03;4950666;28;20064;-90
2022/11/30 04:58:11;;;;;;;25.85;13.93;;;;;;;7.67;95.83;100345.31;4987539;28;22060;-89
2022/11/30 05:00:38;;;;;;;23.48;13.10;;;;;;;7.70;96.38;100347.75;4968558;28;20085;-90
2022/11/30 05:03:05;;;;;;;29.67;15.40;;;;;;;7.70;96.55;100348.59;4968122;28;20647;-89
2022/11/30 05:05:32;;;;;;;26.30;14.45;;;;;;;7.70;96.65;100350.38;4949790;28;20488;-91
2022/11/30 05:07:58;;;;;;;26.63;13.68;;;;;;;7.69;97.01;100354.00;4972702;28;20050;-90
2022/11/30 05:10:26;;;;;;;25.50;14.63;;;;;;;7.69;97.02;100354.84;4979977;28;20057;-90
2022/11/30 05:12:53;;;;;;;25.23;14.88;;;;;;;7.66;97.26;100352.41;4940851;28;20046;-90
2022/11/30 05:15:20;;;;;;;29.25;13.77;;;;;;;7.65;97.31;100358.63;4972982;28;20557;-90
2022/11/30 05:17:47;;;;;;;27.50;14.27;;;;;;;7.68;97.20;100349.63;4971465;28;20046;-90
2022/11/30 05:20:14;;;;;;;28.30;14.35;;;;;;;7.64;97.18;100358.75;4970809;28;20062;-91
2022/11/30 05:22:40;;;;;;;25.15;14.20;;;;;;;7.67;97.13;100350.59;4947566;28;20063;-90
2022/11/30 05:25:08;;;;;;;31.50;14.85;;;;;;;7.66;96.56;100351.53;4948341;28;20051;-90
2022/11/30 05:27:35;;;;;;;26.02;15.10;;;;;;;7.64;96.27;100349.00;4932467;28;20043;-90
2022/11/30 05:30:03;;;;;;;29.83;14.18;;;;;;;7.66;95.40;100347.13;4970665;28;20050;-90
2022/11/30 05:32:29;;;;;;;29.50;14.00;;;;;;;7.69;95.27;100360.13;4984990;28;20055;-90
2022/11/30 05:34:56;;;;;;;29.60;14.88;;;;;;;7.67;95.09;100361.16;4952829;28;20051;-90
2022/11/30 05:37:24;;;;;;;23.92;12.85;;;;;;;7.68;95.20;100362.84;4958636;28;20049;-91
2022/11/30 05:39:50;;;;;;;27.67;14.13;;;;;;;7.66;95.43;100370.03;4971164;28;21503;-91
2022/11/30 05:42:17;;;;;;;26.80;14.93;;;;;;;7.68;94.79;100374.28;4968550;28;20046;-90
2022/11/30 05:44:44;;;;;;;23.85;13.32;;;;;;;7.62;94.34;100377.34;4940646;28;20046;-90
2022/11/30 05:47:11;;;;;;;25.02;14.02;;;;;;;7.66;93.91;100372.69;4985383;28;20042;-90
2022/11/30 05:49:38;;;;;;;25.48;13.10;;;;;;;7.68;93.80;100373.44;4973996;28;20077;-90
2022/11/30 05:52:05;;;;;;;25.33;13.93;;;;;;;7.67;93.51;100374.38;4959825;28;20046;-90
2022/11/30 05:54:33;;;;;;;24.55;12.65;;;;;;;7.68;93.59;100376.91;4941783;28;20506;-91
2022/11/30 05:56:59;;;;;;;27.23;13.05;;;;;;;7.68;93.58;100384.00;4969742;28;20046;-90
2022/11/30 05:59:26;;;;;;;22.38;12.77;;;;;;;7.63;93.60;100375.53;4974721;28;20130;-90
2022/11/30 06:01:53;;;;;;;24.83;12.80;;;;;;;7.65;93.43;100378.94;4969859;28;20042;-90
2022/11/30 06:04:20;;;;;;;24.20;12.95;;;;;;;7.60;92.92;100379.22;4966737;28;20124;-91
2022/11/30 06:06:48;;;;;;;23.15;13.02;;;;;;;7.62;92.90;100379.97;4960345;28;20061;-90
2022/11/30 06:09:15;;;;;;;25.35;13.60;;;;;;;7.64;93.44;100378.09;4969908;28;20061;-90
2022/11/30 06:11:41;;;;;;;29.23;13.80;;;;;;;7.62;93.46;100369.41;4969652;28;20125;-91
2022/11/30 06:14:08;;;;;;;24.85;13.38;;;;;;;7.61;93.58;100368.56;4987128;28;20568;-90
2022/11/30 06:16:38;;;;;;;26.70;14.15;;;;;;;7.65;93.65;100368.34;4990177;28;20148;-90
2022/11/30 06:19:05;;;;;;;26.13;12.85;;;;;;;7.61;94.28;100370.38;4995693;28;20057;-87
2022/11/30 06:21:32;;;;;;;22.33;12.35;;;;;;;7.61;94.34;100365.94;4947119;28;20481;-86
2022/11/30 06:23:58;;;;;;;25.65;13.45;;;;;;;7.63;94.13;100368.44;4977895;28;20042;-86
2022/11/30 06:26:25;;;;;;;33.45;13.73;;;;;;;7.65;93.94;100363.91;4957035;28;20486;-86
2022/11/30 06:28:52;;;;;;;22.52;11.38;;;;;;;7.65;93.82;100368.34;4952855;28;20104;-86
2022/11/30 06:31:18;;;;;;;21.05;12.18;;;;;;;7.61;94.81;100379.13;4964144;28;20050;-87
2022/11/30 06:33:45;;;;;;;23.70;12.20;;;;;;;7.63;94.14;100372.91;4956191;28;20469;-87
2022/11/30 06:36:12;;;;;;;24.65;11.88;;;;;;;7.63;94.26;100367.59;4952407;28;20456;-87
2022/11/30 06:38:39;;;;;;;24.88;12.07;;;;;;;7.60;94.61;100371.31;4984767;28;20065;-87
2022/11/30 06:41:08;;;;;;;23.98;12.73;;;;;;;7.60;94.29;100368.66;4967364;28;20046;-87
2022/11/30 06:43:35;;;;;;;25.80;13.02;;;;;;;7.64;94.06;100369.31;4987552;28;20490;-87
2022/11/30 06:46:03;;;;;;;25.45;12.52;;;;;;;7.64;94.27;100367.50;4982252;28;20058;-87
2022/11/30 06:48:30;;;;;;;24.40;11.98;;;;;;;7.64;94.51;100366.69;4967851;28;20065;-86
2022/11/30 06:50:57;;;;;;;22.63;11.75;;;;;;;7.60;95.11;100377.44;4977958;28;20046;-86
2022/11/30 06:53:24;;;;;;;24.40;11.98;;;;;;;7.61;94.67;100371.22;4967256;28;20035;-86
2022/11/30 06:55:51;;;;;;;26.33;13.45;;;;;;;7.63;95.14;100380.81;4954415;28;20054;-87
2022/11/30 06:58:18;;;;;;;21.10;11.52;;;;;;;7.64;95.02;100371.97;4971071;28;20046;-87
2022/11/30 07:00:45;;;;;;;24.65;12.25;;;;;;;7.63;94.90;100379.00;4967688;28;20046;-87
2022/11/30 07:03:12;;;;;;;21.58;11.80;;;;;;;7.63;95.12;100375.53;4967384;28;20050;-88
2022/11/30 07:05:43;;;;;;;28.13;13.82;;;;;;;7.61;94.83;100378.31;4988214;28;20042;-87
2022/11/30 07:08:12;;;;;;;24.45;12.70;;;;;;;7.66;94.61;100383.25;4979055;28;20521;-87
2022/11/30 07:10:46;;;;;;;23.77;12.90;;;;;;;7.59;93.99;100388.97;4965481;28;20371;-87
2022/11/30 07:13:16;;;;;;;23.67;11.35;;;;;;;7.65;94.14;100384.22;4977436;28;20074;-86
2022/11/30 07:15:43;;;;;;;22.30;12.10;;;;;;;7.64;94.05;100383.38;4963705;28;20119;-86
2022/11/30 07:18:11;;;;;;;25.13;12.82;;;;;;;7.65;93.40;100387.69;4955171;28;20043;-87
2022/11/30 07:20:37;;;;;;;22.38;11.88;;;;;;;7.66;93.26;100385.91;4939733;28;20420;-86
2022/11/30 07:26:05;;;;;;;23.23;11.73;;;;;;;7.68;93.76;100389.28;4932371;28;20126;-86
2022/11/30 07:28:53;;;;;;;29.00;12.75;;;;;;;7.58;93.13;100395.22;4954656;28;20054;-86
2022/11/30 07:31:23;;;;;;;25.55;12.63;;;;;;;7.63;93.28;100388.75;4951226;28;20053;-87
2022/11/30 07:33:51;;;;;;;21.98;11.45;;;;;;;7.61;93.21;100399.44;4972989;28;20413;-86
2022/11/30 07:36:19;;;;;;;25.55;12.32;;;;;;;7.63;93.05;100384.31;4955020;28;20053;-86
2022/11/30 07:38:46;;;;;;;23.60;12.50;;;;;;;7.64;93.33;100391.31;4979163;28;20049;-86
2022/11/30 07:41:13;;;;;;;26.90;13.25;;;;;;;7.58;93.17;100392.56;4989984;28;20118;-86
2022/11/30 07:43:40;;;;;;;26.55;12.77;;;;;;;7.58;93.26;100394.34;4963655;28;20042;-87
2022/11/30 07:46:09;;;;;;;27.80;12.43;;;;;;;7.63;93.21;100391.41;4961384;28;20042;-87
2022/11/30 07:48:35;;;;;;;31.42;13.65;;;;;;;7.65;93.42;100400.91;4987311;28;20042;-87
2022/11/30 07:51:04;;;;;;;23.80;13.32;;;;;;;7.70;93.00;100397.97;4963101;28;20047;-87
2022/11/30 07:53:31;;;;;;;31.45;13.43;;;;;;;7.67;93.22;100393.72;4955716;28;20054;-87
2022/11/30 07:56:04;;;;;;;27.33;12.52;;;;;;;7.67;92.86;100396.38;4990923;28;20046;-87
2022/11/30 07:58:31;;;;;;;25.95;12.48;;;;;;;7.70;92.90;100395.31;4999030;28;20048;-87
2022/11/30 08:01:03;;;;;;;26.13;12.55;;;;;;;7.70;92.60;100400.59;4967700;28;20039;-87
2022/11/30 08:03:32;;;;;;;28.42;13.65;;;;;;;7.71;93.13;100400.50;4972234;28;20120;-87
2022/11/30 08:06:08;;;;;;;25.25;13.20;;;;;;;7.69;93.00;100402.41;4980262;28;20461;-87
2022/11/30 08:08:36;;;;;;;25.17;12.88;;;;;;;7.73;93.25;100403.88;4974627;28;20060;-87
2022/11/30 08:11:07;;;;;;;26.08;12.98;;;;;;;7.73;93.02;100411.81;4958716;28;20442;-88
2022/11/30 08:13:33;;;;;;;26.42;12.13;;;;;;;7.74;93.08;100410.88;4970766;28;20038;-86
2022/11/30 08:16:02;;;;;;;24.48;12.35;;;;;;;7.74;93.12;100413.53;4947675;28;20090;-87
2022/11/30 08:18:29;;;;;;;27.42;12.57;;;;;;;7.73;93.19;100413.63;4981892;28;20046;-87
2022/11/30 08:21:00;;;;;;;26.85;13.68;;;;;;;7.73;92.80;100416.25;4976901;28;20054;-87
2022/11/30 08:23:31;;;;;;;29.58;13.52;;;;;;;7.71;93.37;100416.38;4958106;28;20064;-87
2022/11/30 08:26:06;;;;;;;29.73;13.52;;;;;;;7.68;93.21;100410.44;4941466;28;20051;-86
2022/11/30 08:28:36;;;;;;;27.30;12.85;;;;;;;7.73;93.41;100410.97;4951760;28;20053;-86
2022/11/30 08:31:06;;;;;;;23.52;12.65;;;;;;;7.73;93.58;100414.44;4952220;28;20065;-87
2022/11/30 08:33:33;;;;;;;26.95;13.05;;;;;;;7.75;93.91;100422.28;4960175;28;20516;-87
2022/11/30 08:36:13;;;;;;;26.63;13.63;;;;;;;7.71;93.68;100424.31;4953990;28;20050;-87
2022/11/30 08:38:41;;;;;;;31.48;14.23;;;;;;;7.74;93.45;100423.25;4945201;28;20094;-86
2022/11/30 08:41:10;;;;;;;24.55;11.73;;;;;;;7.75;93.28;100428.41;4946688;28;20047;-87
2022/11/30 08:43:37;;;;;;;30.20;13.55;;;;;;;7.77;92.95;100428.34;4958548;28;20050;-86
2022/11/30 08:46:06;;;;;;;25.70;12.73;;;;;;;7.76;93.43;100432.78;4977498;28;20057;-87
2022/11/30 08:48:53;;;;;;;29.67;14.48;;;;;;;7.75;93.46;100430.22;4982661;28;20097;-87
2022/11/30 08:51:39;;;;;;;25.17;12.52;;;;;;;7.75;93.61;100436.34;4944125;28;20486;-87
2022/11/30 08:54:26;;;;;;;25.70;12.90;;;;;;;7.74;93.48;100432.03;4970137;28;20054;-86
2022/11/30 08:56:53;;;;;;;26.30;12.68;;;;;;;7.77;93.32;100437.09;4976640;28;20507;-87
2022/11/30 08:59:19;;;;;;;25.75;12.65;;;;;;;7.80;93.20;100430.75;4990997;28;20050;-87
2022/11/30 09:01:46;;;;;;;26.90;12.68;;;;;;;7.80;93.28;100439.53;4958990;28;20047;-87
2022/11/30 09:04:13;;;;;;;30.00;15.05;;;;;;;7.83;93.36;100439.31;4969735;28;20039;-87
2022/11/30 09:06:40;;;;;;;27.45;13.10;;;;;;;7.83;93.58;100441.13;4966764;28;20050;-87
2022/11/30 09:09:07;;;;;;;26.30;12.98;;;;;;;7.84;93.13;100450.78;4963333;28;20053;-87
2022/11/30 09:11:34;;;;;;;30.27;13.15;;;;;;;7.86;93.36;100448.00;4952744;28;20393;-85
2022/11/30 09:14:06;;;;;;;22.77;11.80;;;;;;;7.87;93.04;100449.72;4992037;28;20092;-87
2022/11/30 09:16:34;;;;;;;27.40;13.13;;;;;;;7.86;93.37;100448.00;4977148;28;20050;-87
2022/11/30 09:19:01;;;;;;;25.02;12.38;;;;;;;7.87;93.23;100450.56;4968338;28;20500;-87
2022/11/30 09:21:28;;;;;;;27.95;13.35;;;;;;;7.88;93.36;100460.16;4974553;28;20066;-87
2022/11/30 09:23:55;;;;;;;27.08;12.98;;;;;;;7.92;93.46;100451.09;4970359;28;20490;-86
2022/11/30 09:26:24;;;;;;;27.80;13.25;;;;;;;7.93;93.76;100455.41;4987159;28;20046;-87
2022/11/30 09:28:52;;;;;;;29.05;12.15;;;;;;;7.95;93.84;100455.31;4981902;28;20053;-87
2022/11/30 09:31:23;;;;;;;28.23;12.82;;;;;;;7.95;93.82;100464.09;5007339;28;20050;-88
2022/11/30 09:33:50;;;;;;;29.05;12.82;;;;;;;7.98;93.72;100455.97;4968078;28;20050;-87
2022/11/30 09:36:19;;;;;;;25.80;12.77;;;;;;;7.98;93.15;100458.59;4967450;28;20400;-87
2022/11/30 09:38:47;;;;;;;26.15;13.32;;;;;;;8.01;93.52;100465.47;4958817;28;20126;-87
2022/11/30 09:41:23;;;;;;;25.25;12.32;;;;;;;7.99;93.01;100467.41;4985407;28;20054;-86
2022/11/30 09:44:00;;;;;;;26.80;12.85;;;;;;;8.04;93.36;100471.44;4975282;28;20046;-87
2022/11/30 09:46:37;;;;;;;30.02;12.95;;;;;;;8.03;93.11;100468.88;4999973;28;20054;-87
2022/11/30 09:49:15;;;;;;;25.25;12.65;;;;;;;8.00;92.44;100461.16;4981821;28;20117;-87
2022/11/30 09:51:47;;;;;;;32.05;14.25;;;;;;;8.06;92.85;100466.00;4949609;28;20039;-87
2022/11/30 09:54:17;;;;;;;31.20;14.20;;;;;;;8.05;92.79;100464.34;4937525;28;20042;-87
2022/11/30 09:56:45;;;;;;;26.15;13.52;;;;;;;8.05;92.78;100465.16;4962942;28;20049;-87
2022/11/30 09:59:20;;;;;;;29.60;13.95;;;;;;;8.01;92.56;100455.78;4973272;28;20105;-87
2022/11/30 10:01:47;;;;;;;30.65;13.05;;;;;;;8.03;92.28;100460.94;4948965;28;20501;-87
2022/11/30 10:04:25;;;;;;;28.30;14.93;;;;;;;8.02;92.61;100460.09;4967335;28;20131;-87
2022/11/30 10:07:22;;;;;;;26.02;13.18;;;;;;;7.96;92.41;100457.88;4967258;28;20050;-87
2022/11/30 10:10:11;;;;;;;27.88;13.32;;;;;;;7.95;92.24;100453.53;4923456;28;20077;-87
2022/11/30 10:13:03;;;;;;;24.42;12.15;;;;;;;8.01;92.68;100446.97;4926550;28;20482;-87
2022/11/30 10:15:56;;;;;;;28.27;13.95;;;;;;;7.95;92.71;100455.31;4957646;28;20047;-86
2022/11/30 10:18:48;;;;;;;27.67;13.15;;;;;;;7.99;93.08;100449.72;4897726;28;20046;-87
2022/11/30 10:21:52;;;;;;;28.55;12.93;;;;;;;7.99;92.80;100451.53;4924762;28;20046;-86
2022/11/30 10:24:34;;;;;;;26.40;12.82;;;;;;;8.01;93.23;100445.19;4917729;28;20054;-87
2022/11/30 10:27:12;;;;;;;27.13;12.88;;;;;;;8.01;93.21;100446.97;4952795;28;20046;-86
2022/11/30 10:29:42;;;;;;;26.27;12.88;;;;;;;8.06;93.16;100450.13;4962522;28;20705;-87
2022/11/30 10:32:18;;;;;;;31.25;13.07;;;;;;;7.98;92.56;100440.09;4973893;28;20048;-87
2022/11/30 10:34:52;;;;;;;28.35;14.32;;;;;;;7.99;91.75;100441.81;4916645;28;20047;-86
2022/11/30 10:37:21;;;;;;;26.35;13.13;;;;;;;8.02;92.05;100438.09;4967234;28;20050;-87
2022/11/30 10:39:54;;;;;;;29.58;13.55;;;;;;;7.95;92.14;100442.09;4973778;28;20042;-87
2022/11/30 10:42:30;;;;;;;29.15;15.20;;;;;;;7.90;92.07;100434.47;4999532;28;20062;-87
2022/11/30 10:44:59;;;;;;;31.55;14.27;;;;;;;7.85;91.97;100435.75;4960923;28;20133;-87
2022/11/30 10:47:35;;;;;;;30.83;14.52;;;;;;;7.81;91.80;100433.31;4984195;28;20481;-87
2022/11/30 10:50:06;;;;;;;31.90;15.65;;;;;;;7.85;91.93;100428.66;4952892;28;20109;-87
2022/11/30 10:52:40;;;;;;;33.28;15.57;;;;;;;7.89;91.49;100430.16;4965889;28;20181;-87
2022/11/30 10:55:13;;;;;;;36.42;16.80;;;;;;;7.92;91.81;100432.59;4972798;28;20041;-87
2022/11/30 10:57:41;;;;;;;32.05;15.40;;;;;;;7.97;91.95;100424.34;4984685;28;20057;-87
2022/11/30 11:00:12;;;;;;;31.45;14.23;;;;;;;7.98;91.58;100428.66;4944107;28;20042;-87
2022/11/30 11:02:42;;;;;;;30.08;14.93;;;;;;;7.95;91.39;100421.78;4980570;28;20509;-86
2022/11/30 11:05:15;;;;;;;34.42;15.93;;;;;;;7.93;91.65;100425.50;4952144;28;20047;-87
2022/11/30 11:07:55;;;;;;;32.10;15.18;;;;;;;7.91;91.78;100422.97;4986779;28;20156;-86
2022/11/30 11:10:50;;;;;;;31.27;14.45;;;;;;;7.83;92.14;100422.63;4929807;28;20121;-87
2022/11/30 11:13:39;;;;;;;27.95;14.15;;;;;;;7.83;92.08;100425.25;4972449;28;20664;-87
2022/11/30 11:16:08;;;;;;;32.42;14.80;;;;;;;7.92;92.34;100427.28;4919645;28;20471;-86
2022/11/30 11:18:36;;;;;;;31.08;15.07;;;;;;;7.93;92.30;100421.03;4946499;28;20047;-87
2022/11/30 11:21:15;;;;;;;30.80;14.68;;;;;;;7.89;91.17;100424.88;4952348;28;20582;-87
2022/11/30 11:23:43;;;;;;;27.65;13.82;;;;;;;7.91;91.54;100419.44;4939536;28;20098;-87
2022/11/30 11:26:24;;;;;;;27.40;13.75;;;;;;;7.87;91.37;100424.13;4979920;28;20065;-87
2022/11/30 11:28:53;;;;;;;34.95;15.38;;;;;;;7.91;92.01;100425.63;4945345;28;20050;-87
2022/11/30 11:31:43;;;;;;;31.13;15.40;;;;;;;7.89;91.92;100424.88;4972043;28;20491;-87
2022/11/30 11:34:24;;;;;;;31.58;15.18;;;;;;;7.94;92.29;100424.56;4976090;28;20378;-87